Midway, Alabama
Current Conditions -  °F | °C
As of 10:58 AM on Thursday 30 Oct 2014 (Local Time) from KEUF Reporting Station
Clear Clear  
Wind Chill: 66°   Ceiling: Unl
Heat Index: 66°   Visibility: 10mi
Dew Point: 41°   Wind: 7mph
Humidity: 40%   Direction: NA
Pressure: 30.07"   Gusts: NA
Location:  32.08°N, 85.52°W
Report Text: KEUF 301558Z AUTO VRB06KT 10SM CLR 19/05 A3007 RMK AO2 SLP179 T01890050
Loading
Personal Weather Stations






























Interactive Weather Map
Tropical Storm Tracking
New forecast layout! Learn more

10-Day Weather Forecast

Advertisements
Track Severe Weather on mobile